Patrick Air Force Base, FL

10:18 AM EDT on May 05, 2015 (GMT -0400)
Patrick Air Force Base | | Change Station
CLOSE
Current Station
Airport
Location: Cocoa Beach,
Elevation: 10 ft
Nearby Weather Stations

Elev 10 ft 28.24 °N, 80.60 °W | Updated 2 hours ago

Clear
Clear
75 °F
Feels Like 75 °F
N
18
Wind Variable Wind from East
Gusts 24 mph

Today
High -- | Low -- °F
--% Chance of Precip.
Yesterday
High -- | Low -- °F
Precip. -- in
6:39 AM 7:59 PM
Full, 98% visible
Pressure 30.16 in
Visibility 10.0 miles
Clouds Clear
Dew Point 65 °F
Humidity 69%
Rainfall 0.01 in
Snow Depth Not available.
UV 1 out of 12
Pollen 6.20 out of 12
Air Quality Not available.
Flu Activity Local Activity
METAR KCOF 051158Z AUTO 08016G21KT 10SM CLR 24/18 A3014 RMK AO2 SLP211 60001 70002 T02410181 10241 20217 53011 $

More Conditions Fewer Conditions

Pressure 30.16 in
Visibility 10.0 miles
Clouds Clear
Dew Point 65 °F
Humidity 69%
Rainfall 0.01 in
Snow Depth Not available.
UV 1 out of 12
Pollen 6.20 out of 12
Air Quality Not available.
Flu Activity Local Activity
METAR KCOF 051158Z AUTO 08016G21KT 10SM CLR 24/18 A3014 RMK AO2 SLP211 60001 70002 T02410181 10241 20217 53011 $

More Conditions Fewer Conditions

Nowcast | as of 4:31 am EDT on May 5, 2015

East northeast winds will increase into late morning as the pressure gradient tightens between high pressure north of the area and a low pressure trough developing over the Bahamas. Scattered showers will continue to develop across the Atlantic waters and move onshore from Martin to Volusia County and push into the interior. Some of the heavier showers may produce rainfall amounts of a quarter to half inch and gusty winds to 30 mph. Additional details...including graphics are available online at: http://www.Srh.NOAA.Gov/mlb/blog.Php

×

10-Day Weather Forecast

Almanac

Astronomy

May. 05, 2015 Rise Set
Actual Time
Civil Twilight
Nautical Twilight
Astronomical Twilight
Moon
Length of Visible Light
Length of Day
Tomorrow will be .
, % of the Moon is Illuminated

Today's Extremes

State Highs State Lows

Community

WunderPhotos

Upload Photos

1,818,901 photos uploaded!

WunderBlogs® & News

Nearby

Air Quality

  Air Quality AQ Index Pollutant
Not available.

Snow Depth

Station Depth Elevation

Earthquake Activity

City Distance Mag. Time & Date
Minimum magnitude displayed is 2.5.

Coastal Water Temperatures

Place Temperature

Stations

Nearby Weather Stations

Station Location Temp. Windchill Dew Point Humidity Wind Precip. Elev Updated Type